Airfield :
LOGIN :

Register | Disclaimer

   EN    FR    IT 

 










Legend :    VFR   Marginal VFR   IFR   Intensive IFR   Very Intensive IFR
Visi :
Ceiling :
>= 8 km
>= 3000ft
5 to 8 km
1000 to 3000 ft
1500m to 5 km
500 to 1000 ft
800 to 1500m
200 to 500 ft
< 800m
< 200 ft
Symbols :   Thunderstorms  Fog  Heavy snow  Heavy precipitations  Wind > 20 kt
SIGMETs :     Misc.  Thunderstorms  Icing  Turbulence  Mountain Waves  Volcanic Ashes







- Airport Elevation : 231 ft
- IATA code : WTN


EGXW - RAF Waddington

CURRENT METAR :
  • 191215Z 09009KT 3000 -RA BKN002 14/14 Q1002 AMB TEMPO 2000 AMB

EXPIRED METARs :
  • 191150Z 11006KT 5000 -RA BKN004 14/14 Q1003 YLO2 TEMPO 3000 RADZ YLO2
  • 191050Z 10005KT 0400 FG VV/// 14/14 Q1004 RED TEMPO 2000 -RA BKN002 AMB
  • 191029Z 11005KT 0500 FG VV/// 14/14 Q1005 RED TEMPO 2000 -RA BKN002 AMB
  • 191019Z 11006KT 1200 BR OVC001 13/13 Q1005 RED TEMPO 2000 RA BKN002 AMB
  • 190950Z 12005KT 2000 -RADZ BKN002 13/13 Q1005 AMB TEMPO 3000 -RA BKN003 YLO2

TAF TAF EGXW
Valid from the 19 at 12:00 until the 20 at 06:00 UTC


191051Z 1912/2006 12006KT 3000 -RA BKN003
TEMPO 1912/1917 2000 RA BKN002
PROB30
TEMPO 1912/1916 0400 FG BKN000
BECMG 1913/1916 BKN005
BECMG 1917/1920 9999 NSW FEW010
TEMPO 1921/2006 5000 -RA BKN010
No reported NOTAMs for that airfield.



MET'MAP, your aeronautical weather chart ! - Copyright ORBIFLY December 2007 - Disclaimer

ORBIFLY MET'MAP TEAM :

Programming & Development : Alexandra Zaïnal
Concept & Development : Baudouin d'Aumeries
Co-Development & Prog : Marc-Olivier Méhu
Technical & hardware support : Manuel Goepfert

Contact : metmap@orbifly.com




SOURCES & CREDITS :

   NOAA